Time;durP1;ratioP1;P1;durP2;ratioP2;P2;SDS_P1;SDS_P2;PMS_P1;PMS_P2;Temp;Humidity;BMP_temperature;BMP_pressure;BME280_temperature;BME280_humidity;BME280_pressure;Samples;Min_cycle;Max_cycle;Signal;HPM_P1;HPM_P2
2023/04/23 00:00:37;;;;;;;14.85;6.97;;;;;;;;;;5032528;28;20025;-70
2023/04/23 00:03:08;;;;;;;13.80;6.72;;;;;;;;;;5031555;28;20031;-72
2023/04/23 00:05:35;;;;;;;10.48;6.20;;;;;;;;;;5031707;28;20474;-72
2023/04/23 00:08:01;;;;;;;13.57;6.20;;;;;;;;;;5032292;28;20014;-71
2023/04/23 00:10:26;;;;;;;11.65;6.10;;;;;;;;;;5032464;28;20014;-72
2023/04/23 00:12:52;;;;;;;12.60;7.40;;;;;;;;;;5032148;28;20404;-72
2023/04/23 00:15:19;;;;;;;11.75;6.72;;;;;;;;;;5031582;28;20371;-71
2023/04/23 00:17:44;;;;;;;11.48;7.10;;;;;;;;;;5031605;28;20030;-70
2023/04/23 00:20:10;;;;;;;13.02;7.82;;;;;;;;;;5021844;28;20025;-71
2023/04/23 00:22:35;;;;;;;15.23;7.20;;;;;;;;;;5031857;28;20048;-72
2023/04/23 00:25:01;;;;;;;11.57;5.85;;;;;;;;;;5031351;28;20025;-71
2023/04/23 00:27:26;;;;;;;17.25;7.05;;;;;;;;;;5032127;28;20493;-71
2023/04/23 00:29:51;;;;;;;12.35;6.40;;;;;;;;;;5031911;28;20073;-71
2023/04/23 00:32:17;;;;;;;11.82;5.95;;;;;;;;;;5030834;28;20021;-71
2023/04/23 00:34:42;;;;;;;12.63;6.65;;;;;;;;;;5031645;28;20025;-72
2023/04/23 00:37:07;;;;;;;14.73;6.57;;;;;;;;;;5031523;28;20517;-72
2023/04/23 00:39:32;;;;;;;12.20;5.60;;;;;;;;;;5031482;28;20033;-71
2023/04/23 00:42:00;;;;;;;9.40;4.93;;;;;;;;;;5029652;28;20063;-72
2023/04/23 00:44:26;;;;;;;10.07;4.78;;;;;;;;;;5030929;28;20030;-72
2023/04/23 00:46:52;;;;;;;10.73;4.43;;;;;;;;;;5027458;28;20503;-73
2023/04/23 00:49:17;;;;;;;17.23;4.53;;;;;;;;;;5031471;28;20018;-73
2023/04/23 00:51:43;;;;;;;11.38;4.22;;;;;;;;;;5031350;28;20083;-72
2023/04/23 00:54:08;;;;;;;9.07;4.82;;;;;;;;;;5031385;28;20013;-72
2023/04/23 00:56:34;;;;;;;10.07;4.22;;;;;;;;;;5031500;28;20036;-71
2023/04/23 00:59:01;;;;;;;11.18;4.38;;;;;;;;;;5031065;28;20215;-72
2023/04/23 01:01:27;;;;;;;11.85;4.22;;;;;;;;;;5030943;28;20013;-72
2023/04/23 01:03:52;;;;;;;8.43;4.45;;;;;;;;;;5030610;28;20493;-71
2023/04/23 01:06:17;;;;;;;8.55;4.75;;;;;;;;;;5030741;28;20104;-71
2023/04/23 01:08:44;;;;;;;11.93;4.55;;;;;;;;;;5030621;28;20021;-72
2023/04/23 01:11:13;;;;;;;10.18;5.07;;;;;;;;;;5030945;28;20490;-73
2023/04/23 01:13:38;;;;;;;11.93;4.25;;;;;;;;;;5030631;28;20049;-73
2023/04/23 01:16:03;;;;;;;10.52;4.10;;;;;;;;;;5031069;28;20122;-73
2023/04/23 01:18:29;;;;;;;10.50;4.70;;;;;;;;;;5030368;28;20101;-72
2023/04/23 01:20:54;;;;;;;8.88;5.10;;;;;;;;;;5030436;28;20031;-72
2023/04/23 01:23:20;;;;;;;8.98;4.57;;;;;;;;;;5030641;28;20024;-71
2023/04/23 01:25:45;;;;;;;13.80;5.10;;;;;;;;;;5030437;28;20497;-72
2023/04/23 01:28:10;;;;;;;9.00;4.40;;;;;;;;;;5027656;28;20020;-73
2023/04/23 01:30:37;;;;;;;11.95;5.03;;;;;;;;;;5020313;28;20017;-71
2023/04/23 01:33:03;;;;;;;9.13;4.38;;;;;;;;;;5030295;28;20108;-72
2023/04/23 01:35:29;;;;;;;10.38;4.95;;;;;;;;;;5030332;28;20021;-73
2023/04/23 01:37:55;;;;;;;11.68;4.82;;;;;;;;;;5030648;28;20013;-72
2023/04/23 01:40:21;;;;;;;10.02;4.82;;;;;;;;;;5030647;28;20399;-73
2023/04/23 01:42:49;;;;;;;9.50;4.50;;;;;;;;;;5027725;28;20014;-72
2023/04/23 01:45:16;;;;;;;10.85;5.32;;;;;;;;;;5023557;28;20022;-73
2023/04/23 01:47:41;;;;;;;13.02;5.88;;;;;;;;;;5028462;28;20093;-73
2023/04/23 01:50:07;;;;;;;11.15;5.63;;;;;;;;;;5029306;28;20056;-73
2023/04/23 01:52:33;;;;;;;9.15;4.95;;;;;;;;;;5030435;28;20119;-71
2023/04/23 01:54:58;;;;;;;10.85;5.82;;;;;;;;;;5030051;28;20021;-74
2023/04/23 01:57:25;;;;;;;13.93;4.80;;;;;;;;;;5030159;28;20051;-73
2023/04/23 01:59:50;;;;;;;11.68;4.95;;;;;;;;;;5029705;28;20021;-72
2023/04/23 02:02:16;;;;;;;12.05;4.75;;;;;;;;;;5029972;28;20104;-72
2023/04/23 02:04:42;;;;;;;11.20;5.38;;;;;;;;;;5030005;28;20026;-73
2023/04/23 02:07:08;;;;;;;13.73;6.07;;;;;;;;;;5029645;28;20013;-72
2023/04/23 02:09:33;;;;;;;10.00;5.53;;;;;;;;;;5029975;28;20071;-72
2023/04/23 02:11:58;;;;;;;15.10;7.18;;;;;;;;;;5029574;28;20017;-72
2023/04/23 02:14:23;;;;;;;14.13;6.72;;;;;;;;;;5029842;28;20390;-71
2023/04/23 02:16:50;;;;;;;13.35;6.90;;;;;;;;;;5029784;28;20502;-72
2023/04/23 02:19:15;;;;;;;20.35;9.85;;;;;;;;;;5022530;28;20026;-72
2023/04/23 02:21:44;;;;;;;21.23;10.90;;;;;;;;;;5026770;28;20028;-73
2023/04/23 02:24:09;;;;;;;15.48;7.90;;;;;;;;;;5029842;28;20734;-72
2023/04/23 02:26:35;;;;;;;16.20;7.68;;;;;;;;;;5029200;28;20037;-73
2023/04/23 02:29:00;;;;;;;15.48;8.00;;;;;;;;;;5029609;28;20014;-73
2023/04/23 02:31:25;;;;;;;14.30;7.60;;;;;;;;;;5029427;28;20019;-71
2023/04/23 02:33:51;;;;;;;16.10;6.55;;;;;;;;;;5028932;28;20029;-73
2023/04/23 02:36:16;;;;;;;13.95;6.53;;;;;;;;;;5029366;28;20017;-72
2023/04/23 02:38:43;;;;;;;13.10;7.82;;;;;;;;;;5029461;28;20104;-73
2023/04/23 02:41:09;;;;;;;15.10;5.90;;;;;;;;;;5027520;28;20025;-73
2023/04/23 02:43:34;;;;;;;15.07;6.28;;;;;;;;;;5029202;28;20025;-73
2023/04/23 02:46:06;;;;;;;11.70;6.60;;;;;;;;;;5020363;28;20037;-73
2023/04/23 02:48:32;;;;;;;11.63;6.00;;;;;;;;;;5029523;28;20410;-72
2023/04/23 02:50:57;;;;;;;9.95;5.35;;;;;;;;;;5027931;28;20492;-72
2023/04/23 02:53:23;;;;;;;13.27;4.95;;;;;;;;;;5029262;28;20021;-71
2023/04/23 02:55:48;;;;;;;9.18;5.20;;;;;;;;;;5031081;28;20026;-73
2023/04/23 02:58:13;;;;;;;10.20;4.93;;;;;;;;;;5033343;28;20364;-70
2023/04/23 03:00:38;;;;;;;10.25;4.95;;;;;;;;;;5033294;28;20022;-73
2023/04/23 03:03:04;;;;;;;13.20;5.57;;;;;;;;;;5033059;28;20545;-72
2023/04/23 03:05:29;;;;;;;10.70;5.55;;;;;;;;;;5032957;28;20101;-72
2023/04/23 03:07:54;;;;;;;9.00;5.20;;;;;;;;;;5032245;28;20028;-71
2023/04/23 03:10:20;;;;;;;11.68;5.03;;;;;;;;;;5033046;28;20014;-72
2023/04/23 03:12:45;;;;;;;9.55;4.85;;;;;;;;;;5033415;28;20093;-70
2023/04/23 03:15:10;;;;;;;7.97;5.00;;;;;;;;;;5033219;28;20113;-72
2023/04/23 03:17:37;;;;;;;12.25;5.25;;;;;;;;;;5032780;28;20040;-72
2023/04/23 03:20:02;;;;;;;12.30;5.53;;;;;;;;;;5021275;28;20116;-71
2023/04/23 03:22:27;;;;;;;8.45;5.15;;;;;;;;;;5032926;28;20460;-72
2023/04/23 03:24:53;;;;;;;7.95;4.88;;;;;;;;;;5032375;28;20021;-73
2023/04/23 03:27:18;;;;;;;9.35;4.93;;;;;;;;;;5033067;28;20052;-73
2023/04/23 03:29:46;;;;;;;11.63;5.90;;;;;;;;;;5033166;28;20025;-74
2023/04/23 03:32:11;;;;;;;9.88;4.82;;;;;;;;;;5032927;28;20537;-73
2023/04/23 03:34:37;;;;;;;11.95;5.43;;;;;;;;;;5032272;28;20037;-73
2023/04/23 03:37:02;;;;;;;9.57;4.90;;;;;;;;;;5032525;28;20083;-71
2023/04/23 03:39:27;;;;;;;8.98;4.70;;;;;;;;;;5032582;28;20155;-72
2023/04/23 03:41:52;;;;;;;7.00;4.40;;;;;;;;;;5030411;28;20104;-73
2023/04/23 03:44:17;;;;;;;9.52;5.03;;;;;;;;;;5028469;28;20033;-73
2023/04/23 03:46:43;;;;;;;11.10;4.95;;;;;;;;;;5023874;28;20418;-73
2023/04/23 03:49:08;;;;;;;10.50;5.00;;;;;;;;;;5032007;28;20617;-73
2023/04/23 03:51:33;;;;;;;11.02;5.00;;;;;;;;;;5032748;28;20052;-72
2023/04/23 03:53:59;;;;;;;12.45;6.00;;;;;;;;;;5032002;28;20041;-71
2023/04/23 03:56:24;;;;;;;13.98;5.10;;;;;;;;;;5032344;28;20541;-73
2023/04/23 03:58:49;;;;;;;11.68;5.15;;;;;;;;;;5032123;28;20032;-73
2023/04/23 04:01:15;;;;;;;9.32;5.05;;;;;;;;;;5032401;28;20025;-72
2023/04/23 04:03:40;;;;;;;10.02;4.63;;;;;;;;;;5031535;28;20051;-73
2023/04/23 04:06:06;;;;;;;7.88;4.25;;;;;;;;;;5031807;28;20474;-73
2023/04/23 04:08:32;;;;;;;10.32;4.72;;;;;;;;;;5031334;28;20121;-72
2023/04/23 04:10:57;;;;;;;10.13;4.75;;;;;;;;;;5032520;28;20482;-73
2023/04/23 04:13:22;;;;;;;10.35;5.15;;;;;;;;;;5032647;28;20018;-72
2023/04/23 04:15:47;;;;;;;11.10;4.45;;;;;;;;;;5032061;28;20048;-71
2023/04/23 04:18:13;;;;;;;12.57;5.90;;;;;;;;;;5031615;28;20017;-72
2023/04/23 04:20:38;;;;;;;8.55;4.80;;;;;;;;;;5021773;28;20025;-70
2023/04/23 04:23:03;;;;;;;10.75;5.30;;;;;;;;;;5031892;28;20092;-71
2023/04/23 04:25:29;;;;;;;9.00;5.00;;;;;;;;;;5031551;28;20029;-73
2023/04/23 04:27:54;;;;;;;9.57;4.70;;;;;;;;;;5032247;28;20029;-72
2023/04/23 04:30:20;;;;;;;10.88;4.57;;;;;;;;;;5031977;28;20094;-73
2023/04/23 04:32:46;;;;;;;10.02;4.45;;;;;;;;;;5031899;28;20026;-72
2023/04/23 04:35:14;;;;;;;9.65;4.40;;;;;;;;;;5031623;28;20028;-73
2023/04/23 04:37:39;;;;;;;11.05;5.65;;;;;;;;;;5031829;28;20112;-71
2023/04/23 04:40:06;;;;;;;12.35;5.22;;;;;;;;;;5032252;28;20099;-71
2023/04/23 04:42:31;;;;;;;9.68;4.70;;;;;;;;;;5031803;28;20017;-73
2023/04/23 04:44:58;;;;;;;10.85;5.05;;;;;;;;;;5042199;28;20021;-72
2023/04/23 04:47:23;;;;;;;11.00;5.35;;;;;;;;;;5027450;28;20106;-71
2023/04/23 04:49:48;;;;;;;10.43;5.72;;;;;;;;;;5031473;28;20057;-72
2023/04/23 04:52:14;;;;;;;10.07;4.97;;;;;;;;;;5031568;28;20032;-73
2023/04/23 04:54:40;;;;;;;10.30;5.13;;;;;;;;;;5031418;28;20030;-72
2023/04/23 04:57:05;;;;;;;8.65;4.72;;;;;;;;;;5031738;28;20025;-73
2023/04/23 04:59:33;;;;;;;7.63;4.38;;;;;;;;;;5031538;28;20022;-74
2023/04/23 05:01:59;;;;;;;9.18;5.13;;;;;;;;;;5029925;28;20087;-72
2023/04/23 05:04:24;;;;;;;9.43;5.50;;;;;;;;;;5030610;28;20041;-70
2023/04/23 05:06:49;;;;;;;6.35;4.13;;;;;;;;;;5030897;28;20075;-72
2023/04/23 05:09:15;;;;;;;9.63;4.95;;;;;;;;;;5031432;28;20028;-75
2023/04/23 05:11:40;;;;;;;8.05;4.57;;;;;;;;;;5031291;28;20088;-74
2023/04/23 05:14:06;;;;;;;11.02;4.85;;;;;;;;;;5030792;28;20024;-72
2023/04/23 05:16:31;;;;;;;10.60;5.05;;;;;;;;;;5030840;28;20017;-70
2023/04/23 05:18:56;;;;;;;7.80;4.28;;;;;;;;;;5030250;28;20021;-72
2023/04/23 05:21:21;;;;;;;8.18;3.95;;;;;;;;;;5030817;28;20390;-72
2023/04/23 05:23:48;;;;;;;7.57;3.92;;;;;;;;;;5030495;28;20060;-70
2023/04/23 05:26:13;;;;;;;7.28;3.10;;;;;;;;;;5030450;28;20029;-71
2023/04/23 05:28:38;;;;;;;6.88;3.35;;;;;;;;;;5031390;28;20018;-72
2023/04/23 05:31:04;;;;;;;8.10;3.53;;;;;;;;;;5030081;28;20017;-72
2023/04/23 05:33:29;;;;;;;6.40;2.67;;;;;;;;;;5030157;28;20689;-72
2023/04/23 05:35:54;;;;;;;11.07;2.80;;;;;;;;;;5030649;28;20090;-72
2023/04/23 05:38:19;;;;;;;6.25;3.20;;;;;;;;;;5030877;28;20044;-71
2023/04/23 05:40:45;;;;;;;9.18;4.20;;;;;;;;;;5030939;28;20029;-72
2023/04/23 05:43:10;;;;;;;7.13;3.88;;;;;;;;;;5029169;28;20608;-70
2023/04/23 05:45:36;;;;;;;7.63;3.78;;;;;;;;;;5019915;28;20416;-68
2023/04/23 05:48:01;;;;;;;9.18;3.97;;;;;;;;;;5042593;22;20072;-72
2023/04/23 05:50:26;;;;;;;9.02;3.50;;;;;;;;;;5019452;28;20026;-70
2023/04/23 05:52:52;;;;;;;6.15;3.17;;;;;;;;;;5029511;28;20028;-70
2023/04/23 05:55:19;;;;;;;6.57;2.92;;;;;;;;;;5027460;28;20060;-70
2023/04/23 05:57:45;;;;;;;7.30;2.58;;;;;;;;;;5027171;28;20232;-69
2023/04/23 06:00:10;;;;;;;6.28;2.72;;;;;;;;;;5021972;28;20474;-71
2023/04/23 06:02:36;;;;;;;6.43;2.17;;;;;;;;;;5020872;28;20010;-65
2023/04/23 06:05:02;;;;;;;4.00;2.22;;;;;;;;;;5026791;28;20156;-70
2023/04/23 06:07:27;;;;;;;6.57;2.97;;;;;;;;;;5020455;28;20380;-72
2023/04/23 06:09:52;;;;;;;7.30;2.55;;;;;;;;;;5022866;28;20524;-71
2023/04/23 06:12:18;;;;;;;7.63;2.40;;;;;;;;;;5027617;28;20379;-69
2023/04/23 06:14:43;;;;;;;7.00;2.47;;;;;;;;;;5044641;28;20619;-74
2023/04/23 06:17:08;;;;;;;3.38;1.98;;;;;;;;;;5032412;28;20031;-72
2023/04/23 06:19:33;;;;;;;4.43;2.28;;;;;;;;;;5032297;28;20029;-70
2023/04/23 06:21:59;;;;;;;6.60;2.45;;;;;;;;;;5020605;28;20120;-72
2023/04/23 06:24:24;;;;;;;4.38;2.17;;;;;;;;;;5028352;28;20083;-69
2023/04/23 06:26:49;;;;;;;9.40;2.47;;;;;;;;;;5028970;28;20139;-73
2023/04/23 06:29:14;;;;;;;5.85;2.53;;;;;;;;;;5028631;28;20517;-69
2023/04/23 06:31:40;;;;;;;4.80;2.40;;;;;;;;;;5028288;28;20014;-71
2023/04/23 06:34:05;;;;;;;4.05;2.05;;;;;;;;;;5028050;28;20155;-72
2023/04/23 06:36:31;;;;;;;4.20;2.15;;;;;;;;;;5013185;28;20045;-73
2023/04/23 06:38:56;;;;;;;4.28;2.08;;;;;;;;;;5020522;28;20033;-67
2023/04/23 06:41:21;;;;;;;6.70;2.22;;;;;;;;;;5025922;28;20033;-72
2023/04/23 06:43:47;;;;;;;6.75;2.28;;;;;;;;;;5024273;28;20028;-71
2023/04/23 06:46:12;;;;;;;5.50;2.65;;;;;;;;;;5021011;28;20025;-73
2023/04/23 06:48:38;;;;;;;8.65;2.40;;;;;;;;;;5026116;28;20022;-72
2023/04/23 06:51:04;;;;;;;5.18;2.35;;;;;;;;;;5022745;28;20093;-68
2023/04/23 06:53:30;;;;;;;5.60;2.83;;;;;;;;;;5021712;28;20056;-68
2023/04/23 06:55:55;;;;;;;11.48;2.80;;;;;;;;;;5028243;28;20057;-70
2023/04/23 06:58:22;;;;;;;4.47;2.20;;;;;;;;;;5021404;28;20045;-70
2023/04/23 07:00:47;;;;;;;3.72;2.08;;;;;;;;;;5026020;28;20074;-70
2023/04/23 07:03:12;;;;;;;5.10;2.22;;;;;;;;;;5027404;28;20044;-67
2023/04/23 07:05:37;;;;;;;6.57;2.45;;;;;;;;;;5022142;28;20029;-73
2023/04/23 07:08:03;;;;;;;4.63;2.00;;;;;;;;;;5018107;28;20067;-69
2023/04/23 07:10:28;;;;;;;4.35;2.00;;;;;;;;;;5025005;28;20487;-71
2023/04/23 07:12:53;;;;;;;4.57;2.17;;;;;;;;;;5028088;28;20251;-67
2023/04/23 07:15:18;;;;;;;5.70;2.20;;;;;;;;;;5012246;28;20039;-72
2023/04/23 07:17:43;;;;;;;4.47;1.92;;;;;;;;;;5020830;28;20079;-71
2023/04/23 07:20:09;;;;;;;6.57;1.98;;;;;;;;;;5027262;28;20021;-71
2023/04/23 07:22:34;;;;;;;4.30;2.33;;;;;;;;;;5027674;28;20022;-70
2023/04/23 07:25:00;;;;;;;4.25;2.20;;;;;;;;;;5022400;28;20025;-71
2023/04/23 07:27:25;;;;;;;5.97;2.00;;;;;;;;;;5027334;28;20073;-72
2023/04/23 07:29:50;;;;;;;5.35;2.20;;;;;;;;;;5032265;28;20107;-71
2023/04/23 07:32:16;;;;;;;6.88;2.90;;;;;;;;;;5019682;28;20017;-70
2023/04/23 07:34:41;;;;;;;4.35;2.08;;;;;;;;;;5022790;28;20022;-69
2023/04/23 07:37:06;;;;;;;3.47;2.00;;;;;;;;;;5025588;28;20076;-71
2023/04/23 07:39:32;;;;;;;9.52;2.38;;;;;;;;;;5020896;28;20028;-67
2023/04/23 07:41:57;;;;;;;4.05;2.33;;;;;;;;;;5027845;28;20416;-68
2023/04/23 07:44:22;;;;;;;4.55;2.08;;;;;;;;;;5027613;28;20026;-70
2023/04/23 07:46:48;;;;;;;4.05;1.80;;;;;;;;;;5024567;28;20044;-70
2023/04/23 07:49:13;;;;;;;4.72;2.10;;;;;;;;;;5027547;28;20083;-67
2023/04/23 07:51:38;;;;;;;3.13;1.67;;;;;;;;;;5025564;28;20556;-70
2023/04/23 07:54:04;;;;;;;9.40;2.10;;;;;;;;;;5028353;28;20059;-68
2023/04/23 07:56:31;;;;;;;3.47;1.67;;;;;;;;;;5026722;28;20017;-68
2023/04/23 07:58:57;;;;;;;2.92;1.70;;;;;;;;;;5024417;28;20065;-73
2023/04/23 08:01:22;;;;;;;4.55;2.10;;;;;;;;;;5028767;28;20656;-71
2023/04/23 08:03:47;;;;;;;3.10;1.65;;;;;;;;;;5030671;28;20017;-72
2023/04/23 08:06:12;;;;;;;3.97;1.77;;;;;;;;;;5030577;28;20029;-69
2023/04/23 08:08:38;;;;;;;7.47;2.20;;;;;;;;;;5031019;28;20025;-70
2023/04/23 08:11:04;;;;;;;4.53;2.72;;;;;;;;;;5028637;28;20102;-71
2023/04/23 08:13:29;;;;;;;3.22;1.85;;;;;;;;;;5020633;28;20078;-69
2023/04/23 08:15:55;;;;;;;3.75;1.73;;;;;;;;;;5022696;28;20068;-69
2023/04/23 08:18:20;;;;;;;4.55;1.50;;;;;;;;;;5027090;28;20025;-67
2023/04/23 08:20:45;;;;;;;3.38;1.63;;;;;;;;;;5040335;28;20036;-72
2023/04/23 08:23:10;;;;;;;2.60;1.58;;;;;;;;;;5025718;28;20034;-71
2023/04/23 08:25:36;;;;;;;2.67;1.63;;;;;;;;;;5018661;28;20428;-70
2023/04/23 08:28:02;;;;;;;3.80;1.80;;;;;;;;;;5016653;28;20029;-70
2023/04/23 08:30:27;;;;;;;3.75;1.60;;;;;;;;;;5023490;28;20029;-70
2023/04/23 08:32:53;;;;;;;3.97;1.73;;;;;;;;;;5029748;28;20036;-69
2023/04/23 08:35:19;;;;;;;2.95;1.45;;;;;;;;;;5027572;28;20032;-69
2023/04/23 08:37:45;;;;;;;2.72;1.60;;;;;;;;;;5017770;28;20025;-72
2023/04/23 08:40:10;;;;;;;3.70;1.30;;;;;;;;;;5026279;28;20021;-69
2023/04/23 08:42:35;;;;;;;3.65;1.50;;;;;;;;;;5025791;28;20093;-70
2023/04/23 08:45:02;;;;;;;2.63;1.33;;;;;;;;;;5029503;28;20544;-68
2023/04/23 08:47:28;;;;;;;2.13;1.33;;;;;;;;;;5028773;28;20274;-70
2023/04/23 08:49:54;;;;;;;2.38;1.50;;;;;;;;;;5029471;28;20072;-67
2023/04/23 08:52:23;;;;;;;3.72;1.60;;;;;;;;;;5017658;28;20096;-71
2023/04/23 08:54:48;;;;;;;;;;;;;;;;;;5029946;28;20523;-68
2023/04/23 08:57:15;;;;;;;3.45;1.95;;;;;;;;;;5027241;28;20177;-73
2023/04/23 08:59:40;;;;;;;3.95;1.80;;;;;;;;;;5007449;28;20120;-72
2023/04/23 09:02:08;;;;;;;3.38;2.08;;;;;;;;;;5009016;28;20108;-71
2023/04/23 09:04:34;;;;;;;3.53;1.70;;;;;;;;;;5022069;28;20032;-71
2023/04/23 09:06:59;;;;;;;2.35;1.60;;;;;;;;;;5008726;28;20045;-67
2023/04/23 09:09:26;;;;;;;3.72;1.42;;;;;;;;;;5006254;28;20136;-72
2023/04/23 09:11:52;;;;;;;4.90;1.67;;;;;;;;;;5005478;28;20113;-68
2023/04/23 09:14:17;;;;;;;2.17;1.30;;;;;;;;;;5009726;28;20109;-70
2023/04/23 09:16:43;;;;;;;4.68;1.70;;;;;;;;;;5011158;28;20112;-70
2023/04/23 09:19:09;;;;;;;2.85;1.63;;;;;;;;;;5005322;28;20045;-69
2023/04/23 09:21:35;;;;;;;4.60;2.15;;;;;;;;;;5009381;28;20179;-71
2023/04/23 09:24:03;;;;;;;3.45;1.90;;;;;;;;;;5008700;28;20505;-71
2023/04/23 09:26:28;;;;;;;4.32;2.20;;;;;;;;;;5009834;28;20073;-69
2023/04/23 09:28:54;;;;;;;3.00;1.85;;;;;;;;;;5004131;28;20030;-71
2023/04/23 09:31:29;;;;;;;5.22;2.00;;;;;;;;;;5007861;28;20795;-67
2023/04/23 09:33:54;;;;;;;4.32;2.50;;;;;;;;;;5008861;28;20029;-73
2023/04/23 09:36:21;;;;;;;3.72;2.00;;;;;;;;;;5006944;28;20096;-69
2023/04/23 09:38:46;;;;;;;5.53;2.20;;;;;;;;;;5005464;28;20052;-73
2023/04/23 09:41:21;;;;;;;3.50;1.73;;;;;;;;;;5007022;28;20430;-71
2023/04/23 09:43:47;;;;;;;4.38;2.08;;;;;;;;;;5008066;28;20052;-73
2023/04/23 09:46:15;;;;;;;4.82;2.15;;;;;;;;;;5007952;28;20810;-70
2023/04/23 09:48:44;;;;;;;4.45;1.90;;;;;;;;;;5008928;28;20034;-71
2023/04/23 09:51:12;;;;;;;4.35;1.85;;;;;;;;;;5006364;28;20022;-71
2023/04/23 09:53:42;;;;;;;7.13;2.30;;;;;;;;;;5007454;28;20129;-71
2023/04/23 09:56:07;;;;;;;3.85;2.00;;;;;;;;;;5009082;28;20399;-71
2023/04/23 09:58:32;;;;;;;4.10;2.20;;;;;;;;;;5006171;28;20472;-70
2023/04/23 10:01:07;;;;;;;3.67;2.00;;;;;;;;;;5006721;28;21358;-71
2023/04/23 10:03:33;;;;;;;4.38;2.53;;;;;;;;;;5008828;28;20054;-70
2023/04/23 10:05:58;;;;;;;5.28;2.65;;;;;;;;;;5008618;28;20424;-71
2023/04/23 10:08:24;;;;;;;6.65;2.60;;;;;;;;;;5010004;28;20034;-71
2023/04/23 10:10:50;;;;;;;3.70;2.20;;;;;;;;;;5008173;28;20029;-71
2023/04/23 10:13:16;;;;;;;4.15;2.10;;;;;;;;;;5007033;28;20376;-72
2023/04/23 10:15:41;;;;;;;4.00;2.20;;;;;;;;;;5008279;28;21121;-70
2023/04/23 10:18:08;;;;;;;3.90;2.05;;;;;;;;;;5008051;28;20109;-71
2023/04/23 10:20:33;;;;;;;4.38;2.05;;;;;;;;;;5006341;28;20061;-71
2023/04/23 10:22:59;;;;;;;3.42;1.88;;;;;;;;;;5008071;28;20117;-73
2023/04/23 10:25:25;;;;;;;5.07;2.30;;;;;;;;;;5009074;28;20251;-73
2023/04/23 10:27:51;;;;;;;3.65;1.90;;;;;;;;;;5006244;28;20499;-71
2023/04/23 10:30:17;;;;;;;3.38;1.52;;;;;;;;;;5006819;28;20116;-73
2023/04/23 10:32:43;;;;;;;2.30;1.20;;;;;;;;;;5009844;28;20084;-70
2023/04/23 10:35:09;;;;;;;4.75;1.70;;;;;;;;;;5009329;28;20041;-69
2023/04/23 10:37:35;;;;;;;7.63;1.80;;;;;;;;;;5009135;28;20176;-73
2023/04/23 10:40:08;;;;;;;3.95;2.13;;;;;;;;;;5006627;28;20100;-71
2023/04/23 10:42:33;;;;;;;3.65;1.80;;;;;;;;;;5009557;28;20057;-69
2023/04/23 10:44:59;;;;;;;5.95;2.67;;;;;;;;;;5010695;28;20726;-71
2023/04/23 10:47:24;;;;;;;4.93;2.10;;;;;;;;;;5009213;28;20224;-73
2023/04/23 10:49:50;;;;;;;5.00;2.38;;;;;;;;;;5005509;28;20030;-71
2023/04/23 10:52:16;;;;;;;3.88;1.90;;;;;;;;;;5010337;28;20217;-68
2023/04/23 10:54:49;;;;;;;4.90;2.80;;;;;;;;;;5007079;28;20141;-72
2023/04/23 10:57:14;;;;;;;3.97;2.08;;;;;;;;;;5005931;28;20096;-70
2023/04/23 10:59:50;;;;;;;4.72;2.63;;;;;;;;;;5004835;28;20025;-71
2023/04/23 11:02:16;;;;;;;3.03;1.52;;;;;;;;;;5006491;28;20518;-71
2023/04/23 11:04:44;;;;;;;4.97;2.10;;;;;;;;;;5006051;28;20056;-71
2023/04/23 11:07:10;;;;;;;5.78;2.50;;;;;;;;;;5007113;28;20179;-70
2023/04/23 11:09:37;;;;;;;3.80;2.33;;;;;;;;;;5008884;28;20064;-70
2023/04/23 11:12:04;;;;;;;3.38;2.10;;;;;;;;;;5017894;28;20164;-71
2023/04/23 11:14:46;;;;;;;2.55;1.77;;;;;;;;;;5026541;28;20196;-70
2023/04/23 11:17:12;;;;;;;4.03;1.85;;;;;;;;;;5029901;28;20112;-71
2023/04/23 11:19:38;;;;;;;8.07;1.77;;;;;;;;;;5026742;28;20172;-67
2023/04/23 11:22:03;;;;;;;3.55;2.03;;;;;;;;;;5023657;28;20391;-69
2023/04/23 11:24:29;;;;;;;3.00;1.65;;;;;;;;;;5031512;28;20110;-70
2023/04/23 11:26:55;;;;;;;3.97;1.88;;;;;;;;;;5029451;28;20509;-72
2023/04/23 11:29:24;;;;;;;3.13;1.60;;;;;;;;;;5031946;28;20022;-69
2023/04/23 11:31:49;;;;;;;;;;;;;;;;;;5029109;28;20037;-71
2023/04/23 11:34:15;;;;;;;3.23;1.30;;;;;;;;;;5021038;28;19920;-71
2023/04/23 11:36:41;;;;;;;6.43;1.75;;;;;;;;;;5026678;28;20647;-71
2023/04/23 11:39:07;;;;;;;3.50;1.48;;;;;;;;;;5020361;28;20026;-72
2023/04/23 11:41:32;;;;;;;1.85;0.90;;;;;;;;;;5020192;28;20025;-72
2023/04/23 11:43:58;;;;;;;2.10;1.10;;;;;;;;;;5031329;28;20029;-69
2023/04/23 11:46:23;;;;;;;2.35;1.10;;;;;;;;;;5031507;28;20120;-74
2023/04/23 11:48:49;;;;;;;2.25;1.30;;;;;;;;;;5044289;23;20042;-63
2023/04/23 11:51:15;;;;;;;1.80;1.13;;;;;;;;;;5031877;28;20025;-65
2023/04/23 11:53:46;;;;;;;2.75;1.20;;;;;;;;;;5029834;28;20014;-63
2023/04/23 11:56:14;;;;;;;2.65;1.10;;;;;;;;;;5032467;28;20568;-65
2023/04/23 11:58:40;;;;;;;3.60;1.33;;;;;;;;;;5032438;28;20056;-62
2023/04/23 12:01:05;;;;;;;4.40;1.55;;;;;;;;;;5026280;28;20414;-64
2023/04/23 12:03:32;;;;;;;3.25;1.10;;;;;;;;;;5031373;28;20168;-65
2023/04/23 12:05:57;;;;;;;3.30;1.55;;;;;;;;;;5031994;28;20096;-60
2023/04/23 12:08:22;;;;;;;6.05;1.10;;;;;;;;;;5030598;28;20461;-63
2023/04/23 12:10:51;;;;;;;0.88;0.82;;;;;;;;;;5032280;28;20049;-65
2023/04/23 12:13:17;;;;;;;1.80;0.80;;;;;;;;;;5032054;28;20351;-64
2023/04/23 12:15:45;;;;;;;2.42;0.82;;;;;;;;;;5030558;28;20502;-65
2023/04/23 12:18:10;;;;;;;2.30;0.90;;;;;;;;;;5031249;28;20022;-64
2023/04/23 12:20:36;;;;;;;2.88;1.00;;;;;;;;;;5026741;28;20462;-65
2023/04/23 12:23:07;;;;;;;3.28;1.15;;;;;;;;;;5015421;28;20033;-65
2023/04/23 12:25:33;;;;;;;2.50;1.30;;;;;;;;;;5031903;28;20025;-66
2023/04/23 12:27:59;;;;;;;3.38;1.02;;;;;;;;;;5030912;28;20025;-63
2023/04/23 12:30:31;;;;;;;3.95;1.00;;;;;;;;;;5031687;28;20474;-62
2023/04/23 12:33:03;;;;;;;2.28;1.00;;;;;;;;;;5029947;28;20633;-66
2023/04/23 12:35:41;;;;;;;4.93;1.40;;;;;;;;;;5023150;28;20018;-64
2023/04/23 12:38:06;;;;;;;2.78;1.17;;;;;;;;;;5030297;28;20100;-63
2023/04/23 12:40:32;;;;;;;2.08;0.90;;;;;;;;;;5032097;28;20498;-63
2023/04/23 12:42:57;;;;;;;2.28;0.95;;;;;;;;;;5028047;28;20022;-65
2023/04/23 12:45:22;;;;;;;2.00;1.00;;;;;;;;;;5026397;28;20036;-65
2023/04/23 12:47:48;;;;;;;2.88;1.08;;;;;;;;;;5029625;28;20018;-64
2023/04/23 12:50:13;;;;;;;5.30;1.40;;;;;;;;;;5030771;28;20021;-58
2023/04/23 12:52:38;;;;;;;3.75;1.20;;;;;;;;;;5024679;28;20017;-64
2023/04/23 12:55:03;;;;;;;2.30;1.08;;;;;;;;;;5025557;28;20084;-63
2023/04/23 12:57:29;;;;;;;2.38;1.00;;;;;;;;;;5029367;28;20025;-65
2023/04/23 12:59:55;;;;;;;8.85;1.00;;;;;;;;;;5031538;28;20028;-63
2023/04/23 13:02:20;;;;;;;4.00;1.25;;;;;;;;;;5022554;28;20021;-65
2023/04/23 13:04:45;;;;;;;2.30;1.23;;;;;;;;;;5026118;28;20032;-64
2023/04/23 13:07:10;;;;;;;4.70;1.10;;;;;;;;;;5030557;28;20022;-64
2023/04/23 13:09:36;;;;;;;1.30;0.85;;;;;;;;;;5029763;28;20021;-64
2023/04/23 13:12:01;;;;;;;4.80;1.10;;;;;;;;;;5028396;28;20024;-65
2023/04/23 13:14:26;;;;;;;2.13;1.00;;;;;;;;;;5026298;28;20100;-65
2023/04/23 13:16:52;;;;;;;4.38;1.00;;;;;;;;;;5023899;28;20133;-60
2023/04/23 13:19:17;;;;;;;1.67;1.15;;;;;;;;;;5029559;28;20029;-64
2023/04/23 13:21:42;;;;;;;3.25;1.38;;;;;;;;;;5026375;28;20018;-63
2023/04/23 13:24:07;;;;;;;1.92;1.20;;;;;;;;;;5017799;28;20018;-65
2023/04/23 13:26:33;;;;;;;1.83;0.90;;;;;;;;;;5021948;28;20484;-65
2023/04/23 13:28:59;;;;;;;3.58;1.05;;;;;;;;;;5030301;28;20516;-65
2023/04/23 13:31:25;;;;;;;2.45;1.00;;;;;;;;;;5028092;28;20029;-65
2023/04/23 13:33:50;;;;;;;2.38;1.02;;;;;;;;;;5029531;28;20029;-64
2023/04/23 13:36:15;;;;;;;3.03;0.80;;;;;;;;;;5027947;28;20617;-64
2023/04/23 13:38:41;;;;;;;2.38;1.20;;;;;;;;;;5028491;28;20021;-63
2023/04/23 13:41:06;;;;;;;3.53;1.00;;;;;;;;;;5029307;28;20033;-65
2023/04/23 13:43:31;;;;;;;2.35;1.00;;;;;;;;;;5029738;28;20018;-64
2023/04/23 13:45:57;;;;;;;2.60;1.13;;;;;;;;;;5029663;28;20028;-64
2023/04/23 13:48:27;;;;;;;3.22;1.10;;;;;;;;;;5029147;28;20029;-64
2023/04/23 13:50:52;;;;;;;4.70;1.27;;;;;;;;;;5021077;28;20032;-63
2023/04/23 13:53:17;;;;;;;2.63;1.35;;;;;;;;;;5029169;28;20394;-65
2023/04/23 13:55:43;;;;;;;3.15;1.10;;;;;;;;;;5025038;28;20056;-61
2023/04/23 13:58:08;;;;;;;2.28;1.20;;;;;;;;;;5026374;28;20091;-61
2023/04/23 14:00:34;;;;;;;4.53;1.25;;;;;;;;;;5024662;28;20017;-63
2023/04/23 14:02:59;;;;;;;1.65;1.00;;;;;;;;;;5024581;28;20017;-65
2023/04/23 14:05:24;;;;;;;3.67;1.30;;;;;;;;;;5024327;28;20041;-63
2023/04/23 14:07:49;;;;;;;2.97;1.33;;;;;;;;;;5025479;28;20033;-60
2023/04/23 14:10:15;;;;;;;2.80;1.23;;;;;;;;;;5029394;28;20021;-63
2023/04/23 14:12:40;;;;;;;5.75;1.40;;;;;;;;;;5024944;28;20663;-63
2023/04/23 14:15:06;;;;;;;2.95;1.10;;;;;;;;;;5020327;28;20013;-62
2023/04/23 14:17:31;;;;;;;1.75;1.00;;;;;;;;;;5024992;28;20559;-65
2023/04/23 14:19:57;;;;;;;2.50;1.13;;;;;;;;;;5027607;28;20096;-63
2023/04/23 14:22:22;;;;;;;3.38;1.15;;;;;;;;;;5028643;28;20417;-64
2023/04/23 14:24:56;;;;;;;3.33;1.17;;;;;;;;;;5027021;28;20026;-63
2023/04/23 14:27:21;;;;;;;1.98;0.85;;;;;;;;;;5025516;28;20036;-64
2023/04/23 14:29:50;;;;;;;3.15;0.80;;;;;;;;;;5019615;28;20014;-64
2023/04/23 14:32:16;;;;;;;2.33;1.30;;;;;;;;;;5021355;28;20051;-65